createdAt,value
2022-08-21T00:00:24.247Z,19.00
2022-08-21T00:02:57.926Z,18.66
2022-08-21T00:05:27.081Z,18.90
2022-08-21T00:07:53.832Z,18.54
2022-08-21T00:10:20.393Z,19.01
2022-08-21T00:12:47.751Z,19.15
2022-08-21T00:15:22.880Z,18.89
2022-08-21T00:17:49.901Z,18.77
2022-08-21T00:20:17.182Z,19.10
2022-08-21T00:22:44.071Z,18.86
2022-08-21T00:25:11.385Z,18.58
2022-08-21T00:27:38.484Z,18.51
2022-08-21T00:30:07.423Z,18.46
2022-08-21T00:32:34.798Z,18.47
2022-08-21T00:35:01.271Z,18.76
2022-08-21T00:37:28.053Z,18.26
2022-08-21T00:39:57.557Z,18.51
2022-08-21T00:42:24.448Z,18.40
2022-08-21T00:44:51.768Z,18.30
2022-08-21T00:47:19.530Z,18.40
2022-08-21T00:49:46.665Z,18.85
2022-08-21T00:52:23.157Z,18.58
2022-08-21T00:54:53.479Z,18.67
2022-08-21T00:57:34.047Z,18.54
2022-08-21T01:00:04.373Z,18.61
2022-08-21T01:02:32.022Z,18.69
2022-08-21T01:04:58.500Z,18.49
2022-08-21T01:07:27.684Z,18.58
2022-08-21T01:09:54.390Z,18.29
2022-08-21T01:12:21.069Z,18.60
2022-08-21T01:14:47.893Z,18.69
2022-08-21T01:17:16.995Z,18.42
2022-08-21T01:19:44.265Z,18.21
2022-08-21T01:22:10.995Z,18.12
2022-08-21T01:24:37.420Z,18.30
2022-08-21T01:27:04.964Z,17.88
2022-08-21T01:29:51.287Z,18.18
2022-08-21T01:32:19.861Z,17.96
2022-08-21T01:34:49.317Z,18.03
2022-08-21T01:37:18.000Z,18.17
2022-08-21T01:39:45.880Z,18.18
2022-08-21T01:42:12.587Z,18.18
2022-08-21T01:44:39.480Z,18.19
2022-08-21T01:47:09.115Z,17.85
2022-08-21T01:49:37.124Z,17.86
2022-08-21T01:52:04.875Z,18.15
2022-08-21T01:54:31.959Z,18.08
2022-08-21T01:56:59.862Z,18.17
2022-08-21T01:59:27.127Z,18.19
2022-08-21T02:01:57.572Z,18.02
2022-08-21T02:04:24.601Z,18.09
2022-08-21T02:06:51.245Z,18.13
2022-08-21T02:09:18.346Z,17.98
2022-08-21T02:11:45.244Z,17.81
2022-08-21T02:14:14.980Z,17.65
2022-08-21T02:16:43.772Z,17.98
2022-08-21T02:19:11.538Z,17.65
2022-08-21T02:21:38.086Z,17.61
2022-08-21T02:24:05.268Z,17.56
2022-08-21T02:26:32.012Z,17.51
2022-08-21T02:28:58.657Z,17.84
2022-08-21T02:31:25.715Z,17.41
2022-08-21T02:33:53.111Z,17.05
2022-08-21T02:36:19.783Z,17.29
2022-08-21T02:38:46.370Z,17.15
2022-08-21T02:41:19.725Z,17.16
2022-08-21T02:43:46.720Z,17.09
2022-08-21T02:46:15.903Z,16.91
2022-08-21T02:48:43.186Z,17.27
2022-08-21T02:51:18.469Z,16.95
2022-08-21T02:53:46.106Z,17.12
2022-08-21T02:56:15.327Z,17.24
2022-08-21T02:58:45.062Z,17.11
2022-08-21T03:01:12.018Z,17.22
2022-08-21T03:03:42.764Z,17.43
2022-08-21T03:06:12.517Z,16.82
2022-08-21T03:08:39.648Z,16.89
2022-08-21T03:11:07.223Z,17.24
2022-08-21T03:13:34.760Z,16.89
2022-08-21T03:16:01.786Z,17.16
2022-08-21T03:18:30.823Z,17.18
2022-08-21T03:20:57.376Z,16.78
2022-08-21T03:23:24.020Z,17.03
2022-08-21T03:25:52.101Z,17.14
2022-08-21T03:28:25.474Z,16.89
2022-08-21T03:30:53.526Z,16.82
2022-08-21T03:33:23.393Z,16.97
2022-08-21T03:36:01.736Z,16.86
2022-08-21T03:38:30.069Z,16.65
2022-08-21T03:40:56.642Z,16.54
2022-08-21T03:43:23.254Z,16.45
2022-08-21T03:45:49.990Z,16.57
2022-08-21T03:48:19.945Z,16.58
2022-08-21T03:50:48.271Z,16.84
2022-08-21T03:53:17.522Z,16.71
2022-08-21T03:59:31.717Z,16.49
2022-08-21T04:02:00.884Z,16.47
2022-08-21T04:04:29.417Z,16.48
2022-08-21T04:06:57.041Z,16.31
2022-08-21T04:09:25.389Z,16.36
2022-08-21T04:11:52.185Z,16.25
2022-08-21T04:14:18.941Z,16.63
2022-08-21T04:16:47.692Z,15.99
2022-08-21T04:19:17.655Z,16.51
2022-08-21T04:21:50.897Z,16.36
2022-08-21T04:24:20.433Z,16.30
2022-08-21T04:26:47.388Z,16.11
2022-08-21T04:29:14.195Z,16.14
2022-08-21T04:31:40.762Z,16.17
2022-08-21T04:34:07.381Z,15.87
2022-08-21T04:36:34.505Z,16.24
2022-08-21T04:39:01.235Z,16.31
2022-08-21T04:41:30.337Z,16.37
2022-08-21T04:43:56.936Z,16.18
2022-08-21T04:46:24.360Z,15.74
2022-08-21T04:48:51.039Z,15.81
2022-08-21T04:51:29.301Z,15.92
2022-08-21T04:54:07.749Z,15.90
2022-08-21T04:56:50.817Z,15.91
2022-08-21T04:59:25.413Z,15.98
2022-08-21T05:01:53.053Z,15.97
2022-08-21T05:04:25.027Z,16.16
2022-08-21T05:06:53.882Z,16.40
2022-08-21T05:09:21.221Z,16.46
2022-08-21T05:11:49.718Z,16.30
2022-08-21T05:14:17.002Z,16.57
2022-08-21T05:16:44.871Z,16.69
2022-08-21T05:19:11.813Z,16.81
2022-08-21T05:21:42.617Z,16.77
2022-08-21T05:24:09.629Z,16.72
2022-08-21T05:26:45.298Z,16.64
2022-08-21T05:29:14.805Z,16.49
2022-08-21T05:31:42.181Z,16.35
2022-08-21T05:34:09.109Z,16.42
2022-08-21T05:36:36.833Z,16.48
2022-08-21T05:39:03.982Z,16.53
2022-08-21T05:41:30.775Z,16.44
2022-08-21T05:44:00.772Z,16.45
2022-08-21T05:46:27.303Z,16.73
2022-08-21T05:48:53.866Z,16.72
2022-08-21T05:51:20.400Z,16.54
2022-08-21T05:53:47.117Z,16.52
2022-08-21T05:56:14.082Z,17.04
2022-08-21T05:58:40.785Z,16.65
2022-08-21T06:01:07.680Z,16.58
2022-08-21T06:03:37.178Z,16.90
2022-08-21T06:06:04.003Z,16.85
2022-08-21T06:09:07.531Z,16.88
2022-08-21T06:12:02.664Z,16.73
2022-08-21T06:26:52.825Z,16.43
2022-08-21T06:28:26.052Z,16.95
2022-08-21T06:30:57.047Z,16.95
2022-08-21T06:33:57.196Z,16.99
2022-08-21T06:36:54.297Z,16.79
2022-08-21T06:39:45.331Z,17.52
2022-08-21T06:42:43.092Z,16.91
2022-08-21T06:45:31.696Z,17.39
2022-08-21T06:48:26.897Z,17.47
2022-08-21T06:51:00.054Z,17.42
2022-08-21T06:53:58.803Z,17.69
2022-08-21T06:59:45.388Z,17.01
2022-08-21T07:02:25.334Z,17.47
2022-08-21T07:04:54.154Z,17.34
2022-08-21T07:07:33.375Z,17.18
2022-08-21T07:10:12.069Z,17.48
2022-08-21T07:13:28.155Z,17.55
2022-08-21T07:17:12.788Z,17.91
2022-08-21T07:20:33.385Z,17.98
2022-08-21T07:50:06.196Z,18.26
2022-08-21T10:07:02.664Z,20.35
2022-08-21T10:10:31.057Z,20.62
2022-08-21T10:39:25.954Z,21.07
2022-08-21T10:42:58.017Z,20.99
2022-08-21T10:46:26.168Z,21.67
2022-08-21T10:48:59.709Z,21.85
2022-08-21T10:56:46.666Z,21.85
2022-08-21T11:14:32.196Z,21.33
2022-08-21T11:40:17.870Z,22.82
2022-08-21T11:43:39.879Z,22.98
2022-08-21T11:46:30.245Z,22.92
2022-08-21T11:57:56.925Z,22.51
2022-08-21T12:15:03.899Z,22.60
2022-08-21T12:35:25.143Z,23.41
2022-08-21T12:38:20.954Z,23.06
2022-08-21T12:41:07.852Z,23.30
2022-08-21T12:43:44.781Z,22.84
2022-08-21T12:49:38.403Z,23.44
2022-08-21T12:56:03.344Z,23.27
2022-08-21T12:58:36.070Z,22.83
2022-08-21T13:11:14.806Z,23.47
2022-08-21T13:20:50.618Z,23.46
2022-08-21T13:27:27.370Z,23.73
2022-08-21T20:49:56.474Z,17.28
2022-08-21T20:52:28.191Z,16.85
2022-08-21T20:55:04.113Z,16.73
2022-08-21T20:57:51.054Z,16.53
2022-08-21T21:00:23.195Z,16.86
2022-08-21T21:03:00.120Z,16.61
2022-08-21T21:05:32.994Z,16.51
2022-08-21T21:08:28.654Z,16.49
2022-08-21T21:11:17.927Z,16.77
2022-08-21T21:14:05.100Z,16.99
2022-08-21T21:16:35.724Z,16.57
2022-08-21T21:19:10.899Z,16.70
2022-08-21T21:21:51.666Z,16.29
2022-08-21T21:24:27.551Z,16.77
2022-08-21T21:30:03.134Z,16.39
2022-08-21T21:32:34.611Z,16.20
2022-08-21T21:35:06.364Z,16.37
2022-08-21T21:37:51.645Z,16.05
2022-08-21T21:41:00.527Z,16.53
2022-08-21T21:43:44.016Z,16.68
2022-08-21T21:46:32.383Z,16.59
2022-08-21T21:49:15.832Z,16.89
2022-08-21T21:52:00.212Z,16.75
2022-08-21T21:55:02.766Z,16.71
2022-08-21T21:58:03.712Z,16.65
2022-08-21T22:00:34.008Z,16.30
2022-08-21T22:06:09.802Z,16.39
2022-08-21T22:13:38.649Z,16.71
2022-08-21T22:16:07.965Z,16.46
2022-08-21T22:18:45.276Z,15.75
2022-08-21T22:21:24.010Z,15.93
2022-08-21T22:23:58.348Z,16.06
2022-08-21T22:26:38.288Z,16.22
2022-08-21T22:29:11.665Z,16.55
2022-08-21T22:31:38.513Z,16.40
2022-08-21T22:34:18.345Z,16.43
2022-08-21T22:36:59.545Z,16.44
2022-08-21T22:39:33.189Z,16.19
2022-08-21T22:42:14.530Z,15.90
2022-08-21T22:45:09.420Z,15.72
2022-08-21T22:47:48.491Z,15.71
2022-08-21T22:50:27.579Z,15.85
2022-08-21T22:52:58.835Z,15.48
2022-08-21T22:55:56.367Z,15.60
2022-08-21T22:58:27.636Z,15.50
2022-08-21T23:00:59.668Z,15.73
2022-08-21T23:03:47.431Z,15.61
2022-08-21T23:06:40.319Z,15.79
2022-08-21T23:09:19.718Z,15.88
2022-08-21T23:11:50.724Z,15.81
2022-08-21T23:14:18.144Z,16.28
2022-08-21T23:17:02.958Z,15.87
2022-08-21T23:19:43.007Z,15.76
2022-08-21T23:22:49.080Z,15.93
2022-08-21T23:25:48.846Z,16.21
2022-08-21T23:28:21.545Z,16.13
2022-08-21T23:31:01.342Z,15.80
2022-08-21T23:34:05.782Z,15.75
2022-08-21T23:37:14.038Z,16.25
2022-08-21T23:40:02.950Z,15.89
2022-08-21T23:42:55.608Z,15.94
2022-08-21T23:45:33.177Z,15.71
2022-08-21T23:48:29.409Z,15.61
2022-08-21T23:51:12.298Z,15.37
2022-08-21T23:54:24.297Z,15.57
2022-08-21T23:57:18.880Z,15.51
